Time;durP1;ratioP1;P1;durP2;ratioP2;P2;SDS_P1;SDS_P2;PMS_P1;PMS_P2;Temp;Humidity;BMP_temperature;BMP_pressure;BME280_temperature;BME280_humidity;BME280_pressure;Samples;Min_cycle;Max_cycle;Signal;HPM_P1;HPM_P2
2022/10/08 00:01:02;;;;;;;65.32;35.98;;;;;;;11.33;95.83;95397.81;1723960;83;21332;-49
2022/10/08 00:03:32;;;;;;;58.73;34.70;;;;;;;11.40;96.04;95391.34;1723979;83;21053;-50
2022/10/08 00:06:04;;;;;;;55.28;32.48;;;;;;;11.38;95.64;95390.39;1724004;83;20977;-50
2022/10/08 00:08:34;;;;;;;60.20;35.23;;;;;;;11.30;95.40;95387.67;1724066;83;21040;-50
2022/10/08 00:11:05;;;;;;;52.43;33.67;;;;;;;11.25;95.71;95382.70;1724271;83;21100;-50
2022/10/08 00:13:41;;;;;;;55.67;35.30;;;;;;;11.26;96.03;95382.87;1724190;83;21138;-49
2022/10/08 00:16:15;;;;;;;55.50;32.98;;;;;;;11.26;96.22;95377.95;1690714;83;22500;-49
2022/10/08 00:18:44;;;;;;;49.10;31.87;;;;;;;11.24;96.28;95374.27;1689663;85;20998;-49
2022/10/08 00:21:15;;;;;;;52.67;31.20;;;;;;;11.21;96.44;95376.50;1689644;85;20971;-49
2022/10/08 00:23:45;;;;;;;66.15;35.25;;;;;;;11.18;96.41;95368.36;1689841;84;21119;-50
2022/10/08 00:26:11;;;;;;;61.45;34.88;;;;;;;11.17;96.62;95360.69;1689893;83;21502;-49
2022/10/08 00:28:44;;;;;;;62.70;35.60;;;;;;;11.17;96.53;95366.81;1689454;83;21034;-49
2022/10/08 00:31:19;;;;;;;64.03;34.53;;;;;;;11.15;96.86;95358.97;1681856;85;21073;-49
2022/10/08 00:33:53;;;;;;;63.90;32.35;;;;;;;11.21;97.84;95362.73;1689452;84;22436;-50
2022/10/08 00:36:20;;;;;;;47.00;28.83;;;;;;;11.29;97.85;95351.70;1689712;85;21116;-49
2022/10/08 00:38:48;;;;;;;44.15;28.35;;;;;;;11.32;97.16;95340.42;1689491;84;21026;-50
2022/10/08 00:41:19;;;;;;;38.65;25.95;;;;;;;11.29;96.43;95344.02;1689327;85;21181;-49
2022/10/08 00:43:50;;;;;;;47.47;28.77;;;;;;;11.18;96.04;95336.06;1689897;85;20990;-50
2022/10/08 00:46:30;;;;;;;42.13;26.57;;;;;;;11.08;96.04;95346.00;1689848;85;21011;-50
2022/10/08 00:49:12;;;;;;;40.88;27.55;;;;;;;10.98;96.32;95345.09;1689683;83;20994;-50
2022/10/08 00:51:43;;;;;;;44.25;26.75;;;;;;;10.90;96.47;95336.86;1688677;84;21190;-48
2022/10/08 00:54:10;;;;;;;67.27;37.60;;;;;;;10.84;96.89;95334.45;1689372;84;20938;-49
2022/10/08 00:56:38;;;;;;;67.40;36.55;;;;;;;10.80;97.29;95329.66;1689604;85;21018;-50
2022/10/08 00:59:06;;;;;;;78.90;44.55;;;;;;;10.81;97.81;95322.19;1689485;85;21010;-50
2022/10/08 01:01:34;;;;;;;78.25;45.67;;;;;;;10.75;97.53;95317.02;1689638;85;21070;-49
2022/10/08 01:04:04;;;;;;;80.60;49.77;;;;;;;10.68;97.67;95315.84;1689569;85;22109;-49
2022/10/08 01:06:52;;;;;;;76.82;46.30;;;;;;;10.62;97.52;95315.42;1689666;85;21084;-50
2022/10/08 01:09:54;;;;;;;84.10;48.23;;;;;;;10.56;97.34;95320.67;1689579;85;21057;-50
2022/10/08 01:12:42;;;;;;;82.20;50.90;;;;;;;10.51;97.49;95313.57;1689441;85;21045;-49
2022/10/08 01:15:35;;;;;;;84.95;52.78;;;;;;;10.45;97.38;95309.78;1704022;83;21398;-50
2022/10/08 01:18:21;;;;;;;79.20;49.25;;;;;;;10.39;97.34;95298.52;1724068;83;21627;-50
2022/10/08 01:21:16;;;;;;;70.90;46.10;;;;;;;10.35;97.61;95306.09;1724098;83;21671;-49
2022/10/08 01:25:31;;;;;;;71.65;42.60;;;;;;;10.32;97.58;95304.22;1724157;83;21040;-49
2022/10/08 01:27:01;;;;;;;71.67;42.48;;;;;;;10.32;98.00;95304.22;1719741;83;20993;-50
2022/10/08 01:29:40;;;;;;;64.82;37.38;;;;;;;10.39;98.63;95295.02;1724144;83;21057;-49
2022/10/08 01:32:25;;;;;;;56.73;32.90;;;;;;;10.42;98.61;95299.64;1724102;83;21164;-49
2022/10/08 01:34:58;;;;;;;51.20;32.15;;;;;;;10.42;98.72;95294.14;1724093;83;21017;-50
2022/10/08 01:37:30;;;;;;;56.70;34.80;;;;;;;10.42;98.51;95301.02;1724012;83;21017;-50
2022/10/08 01:39:59;;;;;;;71.80;38.53;;;;;;;10.41;98.79;95293.97;1724150;83;21024;-49
2022/10/08 01:42:28;;;;;;;55.25;34.88;;;;;;;10.41;98.74;95304.39;1724029;83;21557;-49
2022/10/08 01:44:59;;;;;;;55.95;33.15;;;;;;;10.41;98.82;95292.59;1724048;83;21150;-51
2022/10/08 01:47:27;;;;;;;51.05;32.33;;;;;;;10.41;99.17;95301.64;1696737;83;21060;-50
2022/10/08 01:50:06;;;;;;;50.43;32.28;;;;;;;10.45;99.40;95305.66;1724156;83;21482;-51
2022/10/08 01:52:38;;;;;;;52.48;29.57;;;;;;;10.54;100.00;95298.33;1723273;83;21505;-49
2022/10/08 01:55:13;;;;;;;53.87;32.40;;;;;;;10.62;99.84;95303.04;1723908;83;21017;-51
2022/10/08 01:57:40;;;;;;;50.03;32.53;;;;;;;10.59;99.31;95299.78;1724392;83;21711;-49
2022/10/08 02:00:12;;;;;;;50.88;29.72;;;;;;;10.57;99.37;95306.33;1695351;83;20953;-48
2022/10/08 02:02:40;;;;;;;43.28;27.67;;;;;;;10.64;100.00;95300.63;1724080;83;20962;-49
2022/10/08 02:05:08;;;;;;;40.95;26.90;;;;;;;10.74;99.93;95305.25;1723971;82;20946;-50
2022/10/08 02:07:41;;;;;;;54.30;30.15;;;;;;;10.76;99.02;95304.21;1724370;83;21057;-49
2022/10/08 02:10:15;;;;;;;63.73;31.97;;;;;;;10.70;98.19;95296.91;1724085;83;21420;-51
2022/10/08 02:12:43;;;;;;;44.55;28.80;;;;;;;10.64;97.96;95297.28;1723960;83;21010;-51
2022/10/08 02:15:34;;;;;;;57.98;33.15;;;;;;;10.58;97.74;95298.24;1723887;83;21000;-51
2022/10/08 02:18:15;;;;;;;52.03;30.20;;;;;;;10.50;97.61;95299.64;1724181;83;21045;-51
2022/10/08 02:20:51;;;;;;;52.35;32.67;;;;;;;10.39;97.59;95297.77;1724060;83;21046;-49
2022/10/08 02:23:42;;;;;;;56.85;35.03;;;;;;;10.33;97.84;95298.13;1723930;83;21218;-49
2022/10/08 02:26:12;;;;;;;67.40;39.78;;;;;;;10.32;98.21;95300.70;1723862;83;20958;-50
2022/10/08 02:28:53;;;;;;;59.35;36.00;;;;;;;10.26;97.96;95307.91;1695710;83;21455;-49
2022/10/08 02:31:31;;;;;;;66.80;42.00;;;;;;;10.20;98.01;95303.53;1723941;83;21120;-49
2022/10/08 02:34:32;;;;;;;69.00;43.42;;;;;;;10.16;98.06;95302.09;1724220;83;20973;-50
2022/10/08 02:37:12;;;;;;;61.53;39.42;;;;;;;10.17;98.25;95309.14;1724090;83;22121;-49
2022/10/08 02:39:42;;;;;;;63.75;39.25;;;;;;;10.16;98.60;95304.22;1724010;83;20950;-49
2022/10/08 02:42:13;;;;;;;115.40;78.50;;;;;;;10.17;98.84;95298.89;1724197;83;21025;-48
2022/10/08 02:45:13;;;;;;;82.25;54.73;;;;;;;10.17;98.64;95300.89;1724024;83;21429;-49
2022/10/08 02:47:40;;;;;;;47.53;31.10;;;;;;;10.17;98.78;95302.27;1691298;83;20962;-49
2022/10/08 02:50:14;;;;;;;45.30;30.45;;;;;;;10.15;98.66;95296.42;1723770;83;21264;-49
2022/10/08 02:52:42;;;;;;;51.48;33.55;;;;;;;10.12;98.83;95290.38;1724081;83;20937;-49
2022/10/08 02:55:37;;;;;;;52.80;32.93;;;;;;;10.12;99.15;95291.76;1723914;83;21005;-49
2022/10/08 02:58:07;;;;;;;42.45;28.12;;;;;;;10.15;99.47;95293.05;1723992;83;21489;-50
2022/10/08 03:00:42;;;;;;;49.45;33.48;;;;;;;10.17;99.23;95287.14;1724123;83;21014;-50
2022/10/08 03:03:13;;;;;;;49.03;31.48;;;;;;;10.18;99.33;95290.06;1724239;83;21090;-49
2022/10/08 03:05:41;;;;;;;50.03;33.23;;;;;;;10.24;99.77;95283.61;1724146;83;28193;-49
2022/10/08 03:08:11;;;;;;;47.08;33.23;;;;;;;10.36;100.00;95285.64;1723889;83;20954;-49
2022/10/08 03:10:39;;;;;;;42.70;29.92;;;;;;;10.47;100.00;95282.61;1724039;82;20974;-50
2022/10/08 03:13:07;;;;;;;47.25;29.92;;;;;;;10.56;99.99;95281.40;1723941;83;20978;-50
2022/10/08 03:15:35;;;;;;;46.58;29.05;;;;;;;10.60;99.25;95283.45;1713924;83;21150;-50
2022/10/08 03:18:07;;;;;;;44.25;30.90;;;;;;;10.64;98.98;95278.61;1689496;84;21050;-51
2022/10/08 03:20:44;;;;;;;46.53;30.62;;;;;;;10.67;98.91;95280.49;1681609;85;21014;-49
2022/10/08 03:23:13;;;;;;;54.18;30.57;;;;;;;10.75;98.97;95277.90;1689500;85;21102;-50
2022/10/08 03:25:41;;;;;;;40.25;27.13;;;;;;;10.78;98.12;95274.27;1689595;85;20971;-50
2022/10/08 03:28:08;;;;;;;42.13;27.37;;;;;;;10.79;97.74;95273.06;1689347;84;22068;-50
2022/10/08 03:30:35;;;;;;;46.02;28.10;;;;;;;10.79;97.22;95277.19;1681522;85;20990;-50
2022/10/08 03:33:03;;;;;;;43.83;29.45;;;;;;;10.78;96.97;95271.52;1681564;85;20994;-51
2022/10/08 03:35:31;;;;;;;41.18;29.42;;;;;;;10.73;96.86;95269.31;1689605;85;20986;-50
2022/10/08 03:37:58;;;;;;;42.70;28.20;;;;;;;10.72;97.05;95261.47;1689595;85;20966;-50
2022/10/08 03:40:25;;;;;;;46.55;27.37;;;;;;;10.78;97.51;95262.51;1689488;83;21156;-50
2022/10/08 03:42:52;;;;;;;35.50;25.43;;;;;;;10.80;97.01;95262.22;1681500;85;21506;-51
2022/10/08 03:45:19;;;;;;;38.45;27.58;;;;;;;10.82;96.76;95261.17;1689471;85;21065;-49
2022/10/08 03:47:51;;;;;;;48.48;29.35;;;;;;;10.80;96.61;95257.34;1689593;85;20982;-49
2022/10/08 03:50:20;;;;;;;42.60;27.22;;;;;;;10.77;96.47;95256.22;1689551;85;20960;-51
2022/10/08 03:52:47;;;;;;;40.48;25.57;;;;;;;10.77;96.89;95260.34;1689392;85;21877;-50
2022/10/08 03:55:15;;;;;;;37.48;26.50;;;;;;;10.83;96.97;95258.59;1689463;85;21390;-48
2022/10/08 03:57:43;;;;;;;38.20;25.55;;;;;;;10.92;96.74;95257.37;1681795;85;20986;-50
2022/10/08 04:00:12;;;;;;;41.58;25.48;;;;;;;10.98;96.27;95256.98;1689372;85;20974;-48
2022/10/08 04:02:38;;;;;;;34.08;24.75;;;;;;;11.01;96.46;95251.22;1689770;85;20998;-49
2022/10/08 04:05:07;;;;;;;41.10;25.57;;;;;;;11.09;96.32;95256.09;1689397;84;21311;-49
2022/10/08 04:07:33;;;;;;;37.45;25.32;;;;;;;11.17;96.14;95253.28;1689444;83;21097;-49
2022/10/08 04:10:00;;;;;;;36.48;24.47;;;;;;;11.25;95.30;95254.63;1689533;84;20965;-49
2022/10/08 04:12:28;;;;;;;36.03;25.35;;;;;;;11.26;94.81;95254.80;1681500;85;21022;-49
2022/10/08 04:14:54;;;;;;;37.65;25.68;;;;;;;11.27;94.56;95253.58;1681533;85;20966;-49
2022/10/08 04:17:21;;;;;;;34.55;26.33;;;;;;;11.28;94.30;95250.99;1719795;83;21240;-49
2022/10/08 04:19:49;;;;;;;37.30;24.57;;;;;;;11.31;94.14;95255.63;1723944;83;20998;-50
2022/10/08 04:22:15;;;;;;;35.88;23.35;;;;;;;11.31;93.65;95256.24;1724086;83;21457;-50
2022/10/08 04:24:42;;;;;;;39.65;25.12;;;;;;;11.30;93.78;95252.70;1724206;83;21092;-49
2022/10/08 04:27:09;;;;;;;42.40;27.87;;;;;;;11.31;93.50;95259.00;1723991;83;20998;-50
2022/10/08 04:29:36;;;;;;;38.20;24.75;;;;;;;11.29;93.55;95255.88;1724339;83;21890;-50
2022/10/08 04:32:03;;;;;;;34.10;23.83;;;;;;;11.33;93.92;95253.19;1724110;83;21508;-51
2022/10/08 04:34:29;;;;;;;32.65;22.98;;;;;;;11.39;93.46;95252.05;1724141;83;21037;-50
2022/10/08 04:36:56;;;;;;;25.92;19.62;;;;;;;11.39;92.90;95250.05;1724036;83;20994;-49
2022/10/08 04:39:24;;;;;;;22.90;17.80;;;;;;;11.38;92.76;95250.51;1723937;83;21036;-50
2022/10/08 04:41:51;;;;;;;19.52;14.73;;;;;;;11.36;92.49;95253.69;1724169;83;21303;-49
2022/10/08 04:44:18;;;;;;;24.67;15.75;;;;;;;11.32;92.08;95246.14;1723906;83;20946;-49
2022/10/08 04:46:44;;;;;;;20.57;14.38;;;;;;;11.25;91.54;95246.95;1723993;83;21009;-50
2022/10/08 04:49:11;;;;;;;21.75;13.50;;;;;;;11.14;91.17;95250.03;1724077;83;21045;-50
2022/10/08 04:51:38;;;;;;;16.60;11.00;;;;;;;11.05;91.19;95250.51;1724089;83;21014;-50
2022/10/08 04:54:05;;;;;;;13.08;10.15;;;;;;;11.00;91.17;95249.06;1723942;83;21133;-50
2022/10/08 04:56:34;;;;;;;18.90;12.98;;;;;;;10.97;90.79;95244.44;1724028;83;21084;-50
2022/10/08 04:59:01;;;;;;;20.40;13.08;;;;;;;10.91;90.25;95242.65;1724148;83;21015;-52
2022/10/08 05:01:28;;;;;;;13.00;9.90;;;;;;;10.87;90.40;95246.11;1695739;83;21053;-49
2022/10/08 05:03:56;;;;;;;9.53;7.28;;;;;;;10.90;90.49;95248.77;1724078;82;20958;-50
2022/10/08 05:06:26;;;;;;;8.35;7.28;;;;;;;10.93;89.91;95243.77;1723965;83;21259;-50
2022/10/08 05:08:53;;;;;;;19.10;7.80;;;;;;;10.90;89.22;95246.02;1724265;81;21010;-49
2022/10/08 05:11:23;;;;;;;11.22;7.20;;;;;;;10.82;88.90;95244.66;1724135;83;21592;-50
2022/10/08 05:13:55;;;;;;;9.60;5.97;;;;;;;10.78;88.87;95246.75;1723996;83;20966;-50
2022/10/08 05:16:23;;;;;;;9.53;6.03;;;;;;;10.75;88.42;95244.09;1723813;81;21575;-50
2022/10/08 05:18:50;;;;;;;17.45;7.60;;;;;;;10.71;88.24;95239.91;1724080;83;21442;-52
2022/10/08 05:21:21;;;;;;;9.30;6.92;;;;;;;10.66;88.26;95239.84;1723849;83;20954;-49
2022/10/08 05:24:04;;;;;;;24.80;20.90;;;;;;;10.63;88.41;95245.43;1724230;83;21441;-51
2022/10/08 05:26:33;;;;;;;12.33;8.18;;;;;;;10.59;88.56;95245.55;1722709;83;21017;-51
2022/10/08 05:29:02;;;;;;;15.83;8.08;;;;;;;10.60;88.50;95247.67;1743684;81;21069;-50
2022/10/08 05:31:29;;;;;;;20.62;18.52;;;;;;;10.65;88.57;95256.18;1744049;81;21157;-49
2022/10/08 05:33:56;;;;;;;21.57;14.93;;;;;;;10.70;88.41;95250.75;1724026;83;21054;-51
2022/10/08 05:36:30;;;;;;;13.85;9.30;;;;;;;10.76;88.64;95254.67;1723894;83;21053;-49
2022/10/08 05:38:59;;;;;;;8.90;7.10;;;;;;;10.81;88.31;95250.63;1744369;81;21434;-54
2022/10/08 05:41:28;;;;;;;23.47;7.50;;;;;;;10.86;87.92;95250.86;1724302;83;21525;-50
2022/10/08 05:43:56;;;;;;;12.58;7.90;;;;;;;10.87;87.94;95252.41;1724391;83;21220;-51
2022/10/08 05:46:26;;;;;;;68.50;45.28;;;;;;;10.89;87.58;95254.12;1744107;81;21086;-51
2022/10/08 05:48:54;;;;;;;66.35;45.30;;;;;;;10.90;87.59;95251.53;1724034;81;21013;-50
2022/10/08 05:51:22;;;;;;;20.40;13.08;;;;;;;10.97;87.83;95249.94;1724070;83;21064;-49
2022/10/08 05:53:50;;;;;;;12.15;8.40;;;;;;;11.07;87.63;95247.50;1723867;83;21069;-51
2022/10/08 05:56:19;;;;;;;10.40;7.33;;;;;;;11.11;86.88;95250.91;1723903;83;21169;-49
2022/10/08 05:58:47;;;;;;;12.28;7.83;;;;;;;11.10;86.44;95246.61;1724004;83;21006;-51
2022/10/08 06:01:21;;;;;;;9.83;8.75;;;;;;;11.08;86.02;95241.37;1724295;83;21017;-52
2022/10/08 06:03:51;;;;;;;17.77;11.63;;;;;;;11.03;86.17;95246.83;1724003;83;20978;-51
2022/10/08 06:06:18;;;;;;;12.68;9.50;;;;;;;11.02;86.29;95246.64;1724140;83;21073;-50
2022/10/08 06:08:46;;;;;;;12.53;7.58;;;;;;;11.07;86.35;95246.12;1723944;83;21168;-51
2022/10/08 06:11:14;;;;;;;11.90;6.85;;;;;;;11.15;86.42;95248.82;1723893;83;21472;-50
2022/10/08 06:13:41;;;;;;;12.88;7.78;;;;;;;11.17;85.97;95248.39;1719677;83;20970;-50
2022/10/08 06:16:09;;;;;;;11.30;6.37;;;;;;;11.13;86.30;95249.11;1723744;82;20974;-49
2022/10/08 06:18:39;;;;;;;11.57;7.30;;;;;;;11.15;86.48;95246.06;1696125;83;21512;-53
2022/10/08 06:21:10;;;;;;;8.20;7.00;;;;;;;11.13;86.30;95241.60;1723685;83;21172;-50
2022/10/08 06:23:38;;;;;;;10.15;7.33;;;;;;;11.05;86.40;95242.25;1723948;83;20985;-50
2022/10/08 06:26:07;;;;;;;7.72;6.03;;;;;;;11.00;86.63;95246.31;1695394;83;21005;-50
2022/10/08 06:28:35;;;;;;;13.32;7.85;;;;;;;10.99;86.96;95253.02;1723615;83;21016;-52
2022/10/08 06:31:04;;;;;;;12.30;7.90;;;;;;;11.00;86.99;95246.31;1723787;83;21069;-52
2022/10/08 06:33:32;;;;;;;10.65;6.80;;;;;;;11.04;86.94;95246.21;1696019;83;21183;-50
2022/10/08 06:36:15;;;;;;;10.95;7.40;;;;;;;11.06;86.91;95248.70;1723975;83;20981;-51
2022/10/08 06:38:45;;;;;;;12.43;11.18;;;;;;;11.09;86.69;95238.78;1694513;83;21029;-51
2022/10/08 06:41:12;;;;;;;26.05;9.55;;;;;;;11.11;86.45;95248.16;1723727;83;21317;-52
2022/10/08 06:43:39;;;;;;;11.10;7.00;;;;;;;11.18;86.72;95244.42;1723884;83;21072;-50
2022/10/08 06:46:06;;;;;;;17.45;7.80;;;;;;;11.23;86.16;95239.16;1695462;83;22018;-51
2022/10/08 06:48:35;;;;;;;7.15;6.17;;;;;;;11.27;85.70;95242.56;1724004;83;21021;-51
2022/10/08 06:51:06;;;;;;;11.25;5.83;;;;;;;11.29;85.38;95244.27;1744506;81;21525;-52
2022/10/08 06:53:33;;;;;;;8.58;6.08;;;;;;;11.31;85.30;95243.22;1723662;82;21567;-51
2022/10/08 06:56:03;;;;;;;6.95;5.60;;;;;;;11.36;85.14;95238.54;1723893;83;20994;-52
2022/10/08 06:58:30;;;;;;;10.40;8.15;;;;;;;11.39;85.23;95239.03;1724073;83;21124;-57
2022/10/08 07:01:16;;;;;;;25.25;7.87;;;;;;;11.45;84.97;95227.64;1723987;83;20998;-53
2022/10/08 07:03:43;;;;;;;9.03;5.90;;;;;;;11.51;84.96;95230.01;1723903;83;21069;-50
2022/10/08 07:06:11;;;;;;;15.68;6.37;;;;;;;11.61;84.36;95220.68;1723873;83;21009;-50
2022/10/08 07:08:39;;;;;;;12.35;6.17;;;;;;;11.69;83.94;95224.73;1723985;83;21736;-54
2022/10/08 07:11:10;;;;;;;10.55;6.55;;;;;;;11.79;83.86;95228.37;1695725;83;21152;-52
2022/10/08 07:13:37;;;;;;;8.05;6.10;;;;;;;11.87;83.13;95227.70;1723200;83;20969;-54
2022/10/08 07:16:13;;;;;;;17.73;6.35;;;;;;;11.91;82.60;95221.45;1723720;83;21012;-52
2022/10/08 07:18:41;;;;;;;14.83;6.67;;;;;;;11.95;82.32;95222.13;1679557;85;21059;-52
2022/10/08 07:21:11;;;;;;;15.80;6.25;;;;;;;11.98;82.37;95224.59;1679627;85;21106;-50
2022/10/08 07:23:38;;;;;;;7.45;5.83;;;;;;;12.04;82.08;95224.97;1644545;86;21143;-50
2022/10/08 07:26:16;;;;;;;7.25;5.75;;;;;;;12.14;81.99;95229.37;1616638;88;21030;-51
2022/10/08 07:28:56;;;;;;;8.73;6.58;;;;;;;12.20;81.14;95223.44;1679419;85;21031;-51
2022/10/08 07:31:29;;;;;;;10.23;6.03;;;;;;;12.22;81.05;95220.22;1642612;86;21560;-50
2022/10/08 07:33:56;;;;;;;;;;;;;;;12.22;80.63;95215.48;1619204;88;21018;-50
2022/10/08 07:36:24;;;;;;;8.25;6.20;;;;;;;12.32;80.98;95217.72;1632821;88;21170;-51
2022/10/08 07:38:54;;;;;;;8.58;6.20;;;;;;;12.45;80.47;95214.31;1632791;88;21046;-52
2022/10/08 07:41:20;;;;;;;8.73;6.37;;;;;;;12.59;79.90;95213.98;1632826;88;21080;-53
2022/10/08 07:43:52;;;;;;;14.50;6.97;;;;;;;12.77;79.44;95207.81;1632868;88;21026;-52
2022/10/08 07:46:19;;;;;;;12.17;7.13;;;;;;;12.97;78.71;95197.23;1633252;87;21074;-50
2022/10/08 07:48:46;;;;;;;12.88;6.37;;;;;;;13.15;77.72;95198.13;1632813;88;21165;-50
2022/10/08 07:51:16;;;;;;;7.83;5.80;;;;;;;13.19;77.16;95197.97;1632650;87;21082;-53
2022/10/08 07:53:43;;;;;;;7.83;6.75;;;;;;;13.20;76.57;95195.36;1633168;87;21536;-53
2022/10/08 07:56:12;;;;;;;9.20;6.85;;;;;;;13.19;76.72;95192.44;1633035;88;21017;-50
2022/10/08 07:58:39;;;;;;;6.62;5.92;;;;;;;13.22;76.67;95190.93;1633235;87;21568;-50
2022/10/08 08:01:09;;;;;;;6.80;6.00;;;;;;;13.25;76.36;95189.27;1632808;88;21237;-53
2022/10/08 08:03:36;;;;;;;8.98;6.62;;;;;;;13.26;76.33;95178.38;1633256;87;21036;-50
2022/10/08 08:06:05;;;;;;;9.58;6.65;;;;;;;13.24;76.36;95179.44;1632756;87;21141;-54
2022/10/08 08:08:34;;;;;;;7.25;5.60;;;;;;;13.19;76.31;95177.24;1636042;87;21069;-52
2022/10/08 08:11:04;;;;;;;14.60;7.05;;;;;;;13.18;76.51;95178.47;1632645;88;21005;-52
2022/10/08 08:13:32;;;;;;;8.70;6.67;;;;;;;13.15;76.75;95177.40;1632786;88;21296;-51
2022/10/08 08:16:07;;;;;;;8.40;6.42;;;;;;;13.15;76.52;95173.25;1632736;87;21457;-52
2022/10/08 08:18:41;;;;;;;11.03;7.03;;;;;;;13.12;76.62;95173.38;1663095;86;21047;-51
2022/10/08 08:21:14;;;;;;;7.37;6.65;;;;;;;13.10;76.79;95166.16;1669496;86;21471;-51
2022/10/08 08:23:45;;;;;;;14.13;6.72;;;;;;;13.11;76.77;95163.55;1650203;86;21629;-52
2022/10/08 08:26:25;;;;;;;9.85;7.87;;;;;;;13.13;76.91;95158.34;1650427;86;21193;-52
2022/10/08 08:28:57;;;;;;;15.75;7.60;;;;;;;13.22;77.46;95155.61;1669694;86;21022;-51
2022/10/08 08:31:33;;;;;;;9.90;7.55;;;;;;;13.41;77.70;95155.88;1669475;86;21043;-52
2022/10/08 08:34:04;;;;;;;7.65;6.60;;;;;;;13.59;77.47;95148.39;1672401;85;21004;-53
2022/10/08 08:36:34;;;;;;;12.85;6.10;;;;;;;13.78;76.47;95144.45;1669758;86;21015;-50
2022/10/08 08:39:01;;;;;;;8.00;6.30;;;;;;;13.89;76.16;95146.77;1669840;86;21211;-51
2022/10/08 08:42:04;;;;;;;19.02;6.45;;;;;;;13.99;75.44;95138.02;1669589;86;21510;-51
2022/10/08 08:44:41;;;;;;;5.78;5.17;;;;;;;14.14;75.41;95140.98;1669839;86;21126;-51
2022/10/08 08:47:19;;;;;;;6.30;5.70;;;;;;;14.37;75.20;95135.61;1669711;86;21047;-52
2022/10/08 08:50:00;;;;;;;15.40;6.12;;;;;;;14.52;73.80;95137.92;1669586;86;21063;-51
2022/10/08 08:52:32;;;;;;;6.97;5.15;;;;;;;14.64;73.58;95133.59;1649926;86;21268;-51
2022/10/08 08:54:59;;;;;;;7.00;5.78;;;;;;;14.73;72.73;95135.58;1669468;86;21023;-50
2022/10/08 08:57:35;;;;;;;13.72;5.62;;;;;;;14.78;72.65;95133.59;1650158;85;21039;-51
2022/10/08 09:00:18;;;;;;;14.07;5.47;;;;;;;14.89;72.58;95123.56;1672770;85;21003;-51
2022/10/08 09:02:59;;;;;;;9.35;5.95;;;;;;;15.01;72.20;95120.45;1669835;86;21463;-50
2022/10/08 09:05:29;;;;;;;6.90;5.12;;;;;;;15.18;72.75;95118.86;1669664;86;21172;-53
2022/10/08 09:08:20;;;;;;;5.03;4.53;;;;;;;15.50;72.55;95109.19;1669908;86;21543;-53
2022/10/08 09:11:03;;;;;;;4.90;4.42;;;;;;;15.85;71.72;95099.73;1669717;85;20967;-52
2022/10/08 09:13:47;;;;;;;14.28;5.80;;;;;;;16.21;70.22;95094.70;1669914;86;21048;-52
2022/10/08 09:16:16;;;;;;;7.58;5.30;;;;;;;16.50;68.91;95087.84;1653045;86;21092;-51
2022/10/08 09:18:47;;;;;;;8.98;5.80;;;;;;;16.81;68.43;95077.05;1669773;86;21144;-51
2022/10/08 09:21:14;;;;;;;11.93;6.22;;;;;;;17.06;66.95;95070.91;1669543;86;21472;-51
2022/10/08 09:23:42;;;;;;;9.15;5.42;;;;;;;17.23;65.88;95064.97;1669632;86;21098;-52
2022/10/08 09:26:22;;;;;;;10.43;5.47;;;;;;;17.37;65.46;95066.38;1669509;86;21039;-52
2022/10/08 09:28:54;;;;;;;7.12;5.12;;;;;;;17.58;65.60;95066.56;1670210;86;20987;-54
2022/10/08 09:31:36;;;;;;;7.40;6.47;;;;;;;17.86;64.18;95065.55;1669636;86;21394;-53
2022/10/08 09:34:16;;;;;;;6.50;5.65;;;;;;;18.15;62.56;95056.44;1670085;86;21114;-52
2022/10/08 09:36:55;;;;;;;5.60;4.10;;;;;;;18.54;61.46;95062.62;1669925;85;20995;-50
2022/10/08 09:39:35;;;;;;;9.80;4.35;;;;;;;19.07;60.06;95053.73;1669044;85;21284;-50
2022/10/08 09:42:13;;;;;;;21.45;4.67;;;;;;;19.56;59.16;95049.94;1669621;86;21087;-52
2022/10/08 09:44:55;;;;;;;9.20;4.25;;;;;;;20.07;58.52;95049.75;1669556;86;21003;-53
2022/10/08 09:47:23;;;;;;;7.00;4.20;;;;;;;20.63;57.28;95040.29;1669498;86;21356;-52
2022/10/08 09:50:03;;;;;;;8.25;3.90;;;;;;;21.15;54.93;95032.36;1650556;85;21058;-51
2022/10/08 09:52:31;;;;;;;6.67;3.60;;;;;;;21.73;52.78;95031.96;1666452;85;21015;-51
2022/10/08 09:55:16;;;;;;;21.10;4.90;;;;;;;22.21;51.24;95031.06;1669773;84;20988;-51
2022/10/08 09:57:50;;;;;;;17.60;4.37;;;;;;;22.61;50.37;95028.20;1669750;86;21175;-52
2022/10/08 10:00:27;;;;;;;6.65;3.67;;;;;;;23.10;49.28;95026.50;1669962;86;21495;-52
2022/10/08 10:02:56;;;;;;;21.90;4.20;;;;;;;23.53;49.02;95020.41;1670001;86;21075;-53
2022/10/08 10:05:26;;;;;;;5.05;3.17;;;;;;;24.00;47.69;95018.95;1669777;86;21138;-52
2022/10/08 10:07:53;;;;;;;4.35;3.20;;;;;;;24.54;45.64;95011.90;1669676;86;21066;-52
2022/10/08 10:10:27;;;;;;;3.25;2.83;;;;;;;24.94;44.22;95003.78;1669511;86;21287;-52
2022/10/08 10:13:07;;;;;;;22.15;4.85;;;;;;;25.31;43.17;95001.58;1669648;86;21043;-52
2022/10/08 10:15:39;;;;;;;5.62;3.50;;;;;;;25.62;43.01;94993.73;1651741;86;21569;-51
2022/10/08 10:18:12;;;;;;;5.53;3.15;;;;;;;26.02;43.46;94991.85;1644793;85;21032;-53
2022/10/08 10:20:52;;;;;;;10.88;3.95;;;;;;;26.49;42.08;94985.00;1640592;86;20981;-55
2022/10/08 10:23:30;;;;;;;7.97;3.65;;;;;;;26.94;40.18;94989.02;1625665;87;21184;-52
2022/10/08 10:26:08;;;;;;;6.20;3.45;;;;;;;27.15;40.12;94984.95;1689416;85;21441;-52
2022/10/08 10:28:46;;;;;;;16.02;4.62;;;;;;;27.54;38.89;94980.52;1689427;83;21081;-52
2022/10/08 10:31:29;;;;;;;10.45;4.03;;;;;;;27.84;38.23;94975.14;1689392;85;21102;-54
2022/10/08 10:34:20;;;;;;;19.10;4.60;;;;;;;28.12;37.52;94972.30;1689677;85;21123;-52
2022/10/08 10:36:57;;;;;;;7.05;3.67;;;;;;;28.40;36.54;94973.72;1689816;84;21470;-52
2022/10/08 10:40:15;;;;;;;9.28;3.05;;;;;;;28.50;36.37;94965.56;1681363;85;21122;-51
2022/10/08 10:42:54;;;;;;;9.95;3.60;;;;;;;28.72;36.10;94966.95;1680397;84;21001;-52
2022/10/08 10:45:27;;;;;;;10.60;4.35;;;;;;;28.96;35.31;94956.59;1685962;85;21121;-51
2022/10/08 10:47:55;;;;;;;4.47;3.45;;;;;;;29.12;36.61;94945.39;1689948;82;21046;-53
2022/10/08 10:50:30;;;;;;;4.85;2.75;;;;;;;29.43;35.29;94945.51;1689361;85;21137;-53
2022/10/08 10:53:02;;;;;;;3.50;2.65;;;;;;;29.80;35.21;94934.84;1689257;84;20991;-52
2022/10/08 10:55:37;;;;;;;11.48;2.98;;;;;;;30.25;34.84;94932.06;1689522;85;21014;-52
2022/10/08 10:58:28;;;;;;;10.28;2.95;;;;;;;30.53;34.25;94926.08;1689789;85;21025;-52
2022/10/08 11:01:40;;;;;;;5.10;3.37;;;;;;;30.93;34.15;94924.05;1689734;83;21507;-51
2022/10/08 11:04:21;;;;;;;15.18;2.92;;;;;;;31.25;33.09;94919.05;1689612;85;21283;-53
2022/10/08 11:07:30;;;;;;;8.93;3.70;;;;;;;31.50;32.21;94916.95;1689644;85;20966;-52
2022/10/08 11:10:12;;;;;;;7.70;2.87;;;;;;;31.68;32.39;94910.77;1689596;83;21000;-52
2022/10/08 11:12:46;;;;;;;5.00;2.80;;;;;;;31.74;32.77;94911.96;1689572;84;21034;-51
2022/10/08 11:15:33;;;;;;;2.37;2.17;;;;;;;31.66;33.12;94909.17;1689655;83;21026;-52
2022/10/08 11:18:32;;;;;;;16.45;3.20;;;;;;;31.59;32.24;94898.56;1695424;83;21321;-54
2022/10/08 11:21:30;;;;;;;6.08;2.27;;;;;;;31.21;32.56;94892.42;1724045;83;20957;-52
2022/10/08 11:24:34;;;;;;;6.47;2.27;;;;;;;31.12;33.28;94884.53;1724019;83;20993;-53
2022/10/08 11:27:21;;;;;;;5.40;2.52;;;;;;;31.22;32.36;94878.28;1724009;83;21073;-54
2022/10/08 11:29:55;;;;;;;5.22;2.65;;;;;;;31.38;32.39;94875.42;1724010;83;20977;-52
2022/10/08 11:32:22;;;;;;;3.85;2.87;;;;;;;31.55;32.48;94867.59;1724037;81;21117;-53
2022/10/08 11:35:02;;;;;;;9.05;2.80;;;;;;;31.81;31.86;94860.62;1723912;83;20981;-51
2022/10/08 11:38:01;;;;;;;17.10;2.77;;;;;;;32.07;31.86;94858.56;1724078;83;21120;-52
2022/10/08 11:40:36;;;;;;;4.28;2.15;;;;;;;32.31;31.62;94856.32;1717381;82;20998;-52
2022/10/08 11:43:28;;;;;;;5.25;2.17;;;;;;;32.63;30.97;94850.41;1701159;82;21033;-56
2022/10/08 11:46:30;;;;;;;18.32;2.60;;;;;;;32.89;30.70;94849.02;1723881;83;21237;-53
2022/10/08 11:49:00;;;;;;;12.15;5.22;;;;;;;32.81;29.97;94841.92;1723677;83;20962;-54
2022/10/08 11:51:30;;;;;;;12.13;5.22;;;;;;;32.79;29.86;94843.19;1723750;83;21018;-53
2022/10/08 11:54:04;;;;;;;6.95;3.22;;;;;;;32.99;29.76;94836.24;1723759;83;20973;-55